Aeroporto :
LOGIN :

Iscrizione | Disclaimer

   EN    FR    IT 

 










Sommario :    VFR   VFR Marginale   IFR   IFR Intensivo   IFR Molto Intensivo
Visibilità : 
Base nubi : 
>= 8 km
>= 3000ft
5 / 8 km
1000 / 3000 ft
1500m / 5 km
500 / 1000 ft
800 / 1500m
200 / 500 ft
< 800m
< 200 ft
Simboli :   Temporali  Nebbia  Neve Forte  Precipitazioni Forti  Vento > 20 kt
SIGMETs :   Varie  Temporali  Ghiacco  Turbolenza  Onda orograficha  Ceneri Vulcaniche






- Altitudine del aeroporto : 124 ft
- Codice IATA : RNS


LFRN - Rennes

ULTIMO METAR :
  • 271800Z AUTO 28003KT CAVOK 06/01 Q1015 NOSIG

METARs OBSOLETI :
  • 271730Z AUTO 31009KT CAVOK 07/02 Q1014 NOSIG
  • 271700Z AUTO 31012KT 9999 FEW042 08/01 Q1014 NOSIG
  • 271630Z AUTO 30012KT 9999 BKN041 08/02 Q1013 NOSIG
  • 271600Z AUTO 30016KT 9999 SCT033 BKN039 09/02 Q1012 NOSIG
  • 271530Z AUTO 30017KT 9999 SCT033 BKN039 BKN046 10/04 Q1012 NOSIG

TAF TAF LFRN
Valido dal 27 a 18 ore il 28 a 18 ore UTC


271700Z 2718/2818 31010KT 9999 SCT035
BECMG 2718/2720 VRB04KT
BECMG 2802/2804 17010KT
TEMPO 2804/2807 4000 RA
BECMG 2806/2808 OVC008
TEMPO 2808/2815 3000 RADZ BKN004
BECMG 2813/2815 22015G25KT
PROB40
TEMPO 2815/2818 4000 DZ
BECMG 2816/2818 BKN015
ATIS : +33 2 99 67 72 50



MetMap, La meteo Aeronautica in un colpo d'occhio ! - Copyright ORBIFLY Dicembre 2007 - Disclaimer

ORBIFLY MET'MAP TEAM :

Programmazione e sviluppo : Alexandra Zaïnal
Concezione : Baudouin d'Aumeries
Aiuto per la programmazione : Marc-Olivier Méhu
Supporto tecnico e logistico : Manuel Goepfert
Aiuto per la traduzione : Arnaldo La Scala

Contatto : metmap@orbifly.com




FONTI E CREDITI :

   NOAA